sensor_id;sensor_type;location;lat;lon;timestamp;pressure;altitude;pressure_sealevel;temperature;humidity
16595;BME280;8410;52.532;13.336;2022-09-03T00:02:37;101477.53;;;17.91;54.93
16595;BME280;8410;52.532;13.336;2022-09-03T00:05:16;101473.41;;;17.50;56.29
16595;BME280;8410;52.532;13.336;2022-09-03T00:07:55;101478.44;;;17.90;54.76
16595;BME280;8410;52.532;13.336;2022-09-03T00:10:35;101476.59;;;18.07;54.88
16595;BME280;8410;52.532;13.336;2022-09-03T00:13:06;101471.56;;;17.70;54.95
16595;BME280;8410;52.532;13.336;2022-09-03T00:15:38;101475.97;;;17.62;55.66
16595;BME280;8410;52.532;13.336;2022-09-03T00:18:13;101468.22;;;17.42;56.79
16595;BME280;8410;52.532;13.336;2022-09-03T00:20:49;101471.75;;;17.30;56.76
16595;BME280;8410;52.532;13.336;2022-09-03T00:23:21;101469.03;;;17.59;56.14
16595;BME280;8410;52.532;13.336;2022-09-03T00:25:58;101481.97;;;17.79;55.72
16595;BME280;8410;52.532;13.336;2022-09-03T00:28:37;101469.91;;;17.57;55.64
16595;BME280;8410;52.532;13.336;2022-09-03T00:31:14;101472.31;;;17.95;55.64
16595;BME280;8410;52.532;13.336;2022-09-03T00:33:46;101480.44;;;17.23;57.04
16595;BME280;8410;52.532;13.336;2022-09-03T00:36:20;101471.84;;;16.93;57.67
16595;BME280;8410;52.532;13.336;2022-09-03T00:38:50;101478.53;;;17.68;56.53
16595;BME280;8410;52.532;13.336;2022-09-03T00:41:32;101471.66;;;17.55;56.61
16595;BME280;8410;52.532;13.336;2022-09-03T00:44:24;101475.19;;;17.38;56.60
16595;BME280;8410;52.532;13.336;2022-09-03T00:47:03;101476.94;;;17.36;56.51
16595;BME280;8410;52.532;13.336;2022-09-03T00:49:49;101471.63;;;17.62;56.52
16595;BME280;8410;52.532;13.336;2022-09-03T00:52:36;101464.75;;;17.45;57.12
16595;BME280;8410;52.532;13.336;2022-09-03T00:55:14;101471.75;;;17.30;57.56
16595;BME280;8410;52.532;13.336;2022-09-03T00:58:02;101475.31;;;16.65;58.20
16595;BME280;8410;52.532;13.336;2022-09-03T01:00:38;101468.16;;;17.62;56.92
16595;BME280;8410;52.532;13.336;2022-09-03T01:03:14;101464.88;;;17.05;58.15
16595;BME280;8410;52.532;13.336;2022-09-03T01:06:05;101466.63;;;17.09;57.42
16595;BME280;8410;52.532;13.336;2022-09-03T01:09:02;101463.22;;;16.79;58.15
16595;BME280;8410;52.532;13.336;2022-09-03T01:11:48;101462.31;;;16.72;58.61
16595;BME280;8410;52.532;13.336;2022-09-03T01:14:37;101460.53;;;17.17;58.03
16595;BME280;8410;52.532;13.336;2022-09-03T01:17:17;101468.31;;;17.13;57.38
16595;BME280;8410;52.532;13.336;2022-09-03T01:20:16;101459.72;;;16.86;58.32
16595;BME280;8410;52.532;13.336;2022-09-03T01:23:20;101469.25;;;16.67;58.31
16595;BME280;8410;52.532;13.336;2022-09-03T01:26:14;101457.97;;;16.73;58.65
16595;BME280;8410;52.532;13.336;2022-09-03T01:29:01;101448.47;;;16.87;58.38
16595;BME280;8410;52.532;13.336;2022-09-03T01:31:45;101451.94;;;16.63;59.13
16595;BME280;8410;52.532;13.336;2022-09-03T01:34:33;101449.34;;;16.71;59.28
16595;BME280;8410;52.532;13.336;2022-09-03T01:37:14;101443.13;;;17.26;57.04
16595;BME280;8410;52.532;13.336;2022-09-03T01:39:55;101450.22;;;16.38;59.42
16595;BME280;8410;52.532;13.336;2022-09-03T01:42:41;101442.38;;;16.73;59.21
16595;BME280;8410;52.532;13.336;2022-09-03T01:45:31;101440.59;;;17.09;58.17
16595;BME280;8410;52.532;13.336;2022-09-03T01:48:18;101449.25;;;17.08;57.53
16595;BME280;8410;52.532;13.336;2022-09-03T01:50:52;101446.69;;;17.11;58.42
16595;BME280;8410;52.532;13.336;2022-09-03T01:53:45;101453.66;;;16.67;58.63
16595;BME280;8410;52.532;13.336;2022-09-03T01:56:35;101444.94;;;17.08;58.62
16595;BME280;8410;52.532;13.336;2022-09-03T01:59:13;101449.34;;;16.56;58.82
16595;BME280;8410;52.532;13.336;2022-09-03T02:01:54;101451.94;;;16.83;58.49
16595;BME280;8410;52.532;13.336;2022-09-03T02:04:26;101452.81;;;16.53;58.97
16595;BME280;8410;52.532;13.336;2022-09-03T02:06:58;101453.69;;;16.63;58.81
16595;BME280;8410;52.532;13.336;2022-09-03T02:09:27;101459.75;;;16.56;58.86
16595;BME280;8410;52.532;13.336;2022-09-03T02:12:07;101449.34;;;16.43;59.08
16595;BME280;8410;52.532;13.336;2022-09-03T02:14:35;101451.06;;;16.78;58.87
16595;BME280;8410;52.532;13.336;2022-09-03T02:17:07;101453.66;;;16.67;58.88
16595;BME280;8410;52.532;13.336;2022-09-03T02:19:35;101455.41;;;16.61;59.51
16595;BME280;8410;52.532;13.336;2022-09-03T02:22:05;101454.44;;;17.20;57.26
16595;BME280;8410;52.532;13.336;2022-09-03T02:24:33;101456.28;;;16.32;59.52
16595;BME280;8410;52.532;13.336;2022-09-03T02:27:01;101459.72;;;16.36;59.58
16595;BME280;8410;52.532;13.336;2022-09-03T02:29:30;101461.50;;;16.44;59.12
16595;BME280;8410;52.532;13.336;2022-09-03T02:31:59;101459.72;;;16.65;59.26
16595;BME280;8410;52.532;13.336;2022-09-03T02:34:28;101454.53;;;16.83;58.21
16595;BME280;8410;52.532;13.336;2022-09-03T02:36:56;101465.81;;;16.13;60.04
16595;BME280;8410;52.532;13.336;2022-09-03T02:39:25;101457.16;;;16.85;58.10
16595;BME280;8410;52.532;13.336;2022-09-03T02:41:57;101454.47;;;17.05;57.64
16595;BME280;8410;52.532;13.336;2022-09-03T02:44:29;101463.19;;;16.51;59.52
16595;BME280;8410;52.532;13.336;2022-09-03T02:47:00;101455.41;;;16.45;59.24
16595;BME280;8410;52.532;13.336;2022-09-03T02:49:31;101457.13;;;16.65;58.78
16595;BME280;8410;52.532;13.336;2022-09-03T02:52:01;101449.25;;;17.14;57.67
16595;BME280;8410;52.532;13.336;2022-09-03T02:54:32;101455.41;;;16.38;59.27
16595;BME280;8410;52.532;13.336;2022-09-03T02:57:06;101462.34;;;16.82;58.98
16595;BME280;8410;52.532;13.336;2022-09-03T02:59:35;101457.97;;;16.73;57.83
16595;BME280;8410;52.532;13.336;2022-09-03T03:02:04;101456.28;;;16.57;59.68
16595;BME280;8410;52.532;13.336;2022-09-03T03:04:33;101459.75;;;16.77;58.19
16595;BME280;8410;52.532;13.336;2022-09-03T03:07:01;101453.69;;;16.55;58.41
16595;BME280;8410;52.532;13.336;2022-09-03T03:09:29;101454.56;;;16.06;59.68
16595;BME280;8410;52.532;13.336;2022-09-03T03:11:57;101455.41;;;16.61;59.57
16595;BME280;8410;52.532;13.336;2022-09-03T03:14:25;101445.88;;;16.78;58.50
16595;BME280;8410;52.532;13.336;2022-09-03T03:16:53;101448.47;;;16.95;57.60
16595;BME280;8410;52.532;13.336;2022-09-03T03:19:21;101451.94;;;16.29;59.95
16595;BME280;8410;52.532;13.336;2022-09-03T03:21:50;101447.63;;;16.35;59.82
16595;BME280;8410;52.532;13.336;2022-09-03T03:24:18;101452.81;;;16.02;60.24
16595;BME280;8410;52.532;13.336;2022-09-03T03:26:46;101461.47;;;16.07;60.07
16595;BME280;8410;52.532;13.336;2022-09-03T03:29:16;101456.28;;;16.84;58.58
16595;BME280;8410;52.532;13.336;2022-09-03T03:31:44;101467.53;;;16.02;60.15
16595;BME280;8410;52.532;13.336;2022-09-03T03:34:12;101462.34;;;16.77;58.58
16595;BME280;8410;52.532;13.336;2022-09-03T03:36:39;101470.00;;;15.65;61.29
16595;BME280;8410;52.532;13.336;2022-09-03T03:39:09;101463.22;;;16.36;58.99
16595;BME280;8410;52.532;13.336;2022-09-03T03:41:37;101466.66;;;16.10;59.90
16595;BME280;8410;52.532;13.336;2022-09-03T03:44:07;101473.56;;;16.12;59.78
16595;BME280;8410;52.532;13.336;2022-09-03T03:46:37;101475.34;;;16.48;59.68
16595;BME280;8410;52.532;13.336;2022-09-03T03:49:07;101482.25;;;16.38;59.22
16595;BME280;8410;52.532;13.336;2022-09-03T03:51:37;101471.03;;;16.54;59.02
16595;BME280;8410;52.532;13.336;2022-09-03T03:54:06;101471.00;;;16.93;57.43
16595;BME280;8410;52.532;13.336;2022-09-03T03:56:35;101473.59;;;16.44;58.99
16595;BME280;8410;52.532;13.336;2022-09-03T03:59:04;101475.31;;;16.06;59.89
16595;BME280;8410;52.532;13.336;2022-09-03T04:01:32;101479.69;;;16.23;59.71
16595;BME280;8410;52.532;13.336;2022-09-03T04:04:00;101477.06;;;16.38;58.70
16595;BME280;8410;52.532;13.336;2022-09-03T04:06:28;101480.53;;;16.43;59.46
16595;BME280;8410;52.532;13.336;2022-09-03T04:08:56;101475.31;;;16.13;59.59
16595;BME280;8410;52.532;13.336;2022-09-03T04:11:25;101469.25;;;16.27;59.25
16595;BME280;8410;52.532;13.336;2022-09-03T04:13:54;101464.94;;;16.40;58.96
16595;BME280;8410;52.532;13.336;2022-09-03T04:16:25;101464.97;;;16.49;59.53
16595;BME280;8410;52.532;13.336;2022-09-03T04:18:55;101463.22;;;16.61;58.80
16595;BME280;8410;52.532;13.336;2022-09-03T04:21:26;101467.47;;;15.85;60.76
16595;BME280;8410;52.532;13.336;2022-09-03T04:23:55;101471.81;;;15.80;60.96
16595;BME280;8410;52.532;13.336;2022-09-03T04:26:26;101464.91;;;16.14;60.29
16595;BME280;8410;52.532;13.336;2022-09-03T04:29:01;101469.13;;;15.66;60.99
16595;BME280;8410;52.532;13.336;2022-09-03T04:31:30;101468.41;;;16.67;59.63
16595;BME280;8410;52.532;13.336;2022-09-03T04:33:58;101464.06;;;16.32;60.62
16595;BME280;8410;52.532;13.336;2022-09-03T04:36:28;101471.81;;;15.86;60.23
16595;BME280;8410;52.532;13.336;2022-09-03T04:38:59;101473.34;;;15.38;62.67
16595;BME280;8410;52.532;13.336;2022-09-03T04:41:29;101473.25;;;15.19;63.42
16595;BME280;8410;52.532;13.336;2022-09-03T04:43:59;101467.47;;;15.86;61.40
16595;BME280;8410;52.532;13.336;2022-09-03T04:46:28;101471.84;;;16.14;60.59
16595;BME280;8410;52.532;13.336;2022-09-03T04:48:59;101470.13;;;16.09;61.68
16595;BME280;8410;52.532;13.336;2022-09-03T04:51:28;101465.75;;;15.88;61.61
16595;BME280;8410;52.532;13.336;2022-09-03T04:53:59;101474.31;;;15.68;62.25
16595;BME280;8410;52.532;13.336;2022-09-03T04:56:30;101470.88;;;15.69;62.10
16595;BME280;8410;52.532;13.336;2022-09-03T04:59:03;101471.88;;;16.29;60.52
16595;BME280;8410;52.532;13.336;2022-09-03T05:01:34;101473.41;;;15.53;62.62
16595;BME280;8410;52.532;13.336;2022-09-03T05:04:04;101478.72;;;15.87;62.74
16595;BME280;8410;52.532;13.336;2022-09-03T05:06:33;101476.16;;;16.02;62.17
16595;BME280;8410;52.532;13.336;2022-09-03T05:09:03;101471.81;;;15.86;61.86
16595;BME280;8410;52.532;13.336;2022-09-03T05:11:31;101475.28;;;15.97;62.28
16595;BME280;8410;52.532;13.336;2022-09-03T05:14:01;101470.81;;;15.61;63.49
16595;BME280;8410;52.532;13.336;2022-09-03T05:16:29;101481.38;;;16.19;62.30
16595;BME280;8410;52.532;13.336;2022-09-03T05:18:59;101479.63;;;15.97;62.20
16595;BME280;8410;52.532;13.336;2022-09-03T05:21:28;101484.78;;;15.75;63.20
16595;BME280;8410;52.532;13.336;2022-09-03T05:23:59;101487.47;;;16.18;62.72
16595;BME280;8410;52.532;13.336;2022-09-03T05:26:29;101483.97;;;16.05;63.44
16595;BME280;8410;52.532;13.336;2022-09-03T05:29:01;101485.56;;;15.68;64.31
16595;BME280;8410;52.532;13.336;2022-09-03T05:31:36;101485.44;;;15.33;65.27
16595;BME280;8410;52.532;13.336;2022-09-03T05:34:06;101482.19;;;15.86;63.96
16595;BME280;8410;52.532;13.336;2022-09-03T05:36:36;101488.25;;;15.80;64.61
16595;BME280;8410;52.532;13.336;2022-09-03T05:39:05;101485.72;;;16.46;62.56
16595;BME280;8410;52.532;13.336;2022-09-03T05:41:33;101481.38;;;16.33;63.25
16595;BME280;8410;52.532;13.336;2022-09-03T05:44:03;101466.63;;;16.96;62.17
16595;BME280;8410;52.532;13.336;2022-09-03T05:46:32;101483.97;;;16.08;63.53
16595;BME280;8410;52.532;13.336;2022-09-03T05:49:05;101484.00;;;16.48;62.41
16595;BME280;8410;52.532;13.336;2022-09-03T05:51:35;101485.75;;;16.88;62.94
16595;BME280;8410;52.532;13.336;2022-09-03T05:54:05;101484.00;;;16.18;63.59
16595;BME280;8410;52.532;13.336;2022-09-03T05:56:37;101478.81;;;16.82;62.88
16595;BME280;8410;52.532;13.336;2022-09-03T05:59:09;101484.88;;;16.55;63.24
16595;BME280;8410;52.532;13.336;2022-09-03T06:01:39;101487.44;;;16.75;63.16
16595;BME280;8410;52.532;13.336;2022-09-03T06:04:17;101482.25;;;16.60;63.93
16595;BME280;8410;52.532;13.336;2022-09-03T06:06:47;101480.50;;;17.03;62.41
16595;BME280;8410;52.532;13.336;2022-09-03T06:09:18;101482.28;;;16.58;62.90
16595;BME280;8410;52.532;13.336;2022-09-03T06:11:47;101484.88;;;16.66;62.99
16595;BME280;8410;52.532;13.336;2022-09-03T06:14:19;101485.72;;;16.66;62.64
16595;BME280;8410;52.532;13.336;2022-09-03T06:16:49;101487.47;;;16.87;61.93
16595;BME280;8410;52.532;13.336;2022-09-03T06:19:19;101485.69;;;15.99;65.02
16595;BME280;8410;52.532;13.336;2022-09-03T06:21:47;101481.34;;;17.11;62.50
16595;BME280;8410;52.532;13.336;2022-09-03T06:24:17;101482.28;;;16.55;63.50
16595;BME280;8410;52.532;13.336;2022-09-03T06:26:46;101490.06;;;16.12;64.78
16595;BME280;8410;52.532;13.336;2022-09-03T06:29:14;101490.00;;;15.89;66.02
16595;BME280;8410;52.532;13.336;2022-09-03T06:31:45;101486.56;;;16.19;65.30
16595;BME280;8410;52.532;13.336;2022-09-03T06:34:14;101492.66;;;16.26;65.05
16595;BME280;8410;52.532;13.336;2022-09-03T06:36:44;101488.34;;;16.20;65.49
16595;BME280;8410;52.532;13.336;2022-09-03T06:39:12;101483.97;;;17.04;63.05
16595;BME280;8410;52.532;13.336;2022-09-03T06:41:40;101490.88;;;17.17;62.90
16595;BME280;8410;52.532;13.336;2022-09-03T06:44:08;101493.50;;;16.09;65.51
16595;BME280;8410;52.532;13.336;2022-09-03T06:46:39;101484.88;;;16.76;64.42
16595;BME280;8410;52.532;13.336;2022-09-03T06:49:10;101490.06;;;16.55;64.08
16595;BME280;8410;52.532;13.336;2022-09-03T06:51:39;101489.22;;;16.61;64.16
16595;BME280;8410;52.532;13.336;2022-09-03T06:54:11;101489.22;;;16.82;64.34
16595;BME280;8410;52.532;13.336;2022-09-03T06:56:40;101495.28;;;16.41;64.36
16595;BME280;8410;52.532;13.336;2022-09-03T06:59:10;101485.69;;;17.05;63.46
16595;BME280;8410;52.532;13.336;2022-09-03T07:01:39;101486.59;;;16.61;64.10
16595;BME280;8410;52.532;13.336;2022-09-03T07:04:13;101494.09;;;17.74;62.01
16595;BME280;8410;52.532;13.336;2022-09-03T07:06:45;101490.84;;;17.23;62.69
16595;BME280;8410;52.532;13.336;2022-09-03T07:09:13;101486.56;;;17.07;62.77
16595;BME280;8410;52.532;13.336;2022-09-03T07:11:43;101488.34;;;16.77;64.06
16595;BME280;8410;52.532;13.336;2022-09-03T07:14:16;101477.75;;;17.54;61.98
16595;BME280;8410;52.532;13.336;2022-09-03T07:16:46;101482.00;;;17.70;61.17
16595;BME280;8410;52.532;13.336;2022-09-03T07:19:16;101481.09;;;17.80;61.43
16595;BME280;8410;52.532;13.336;2022-09-03T07:21:44;101487.91;;;18.03;60.92
16595;BME280;8410;52.532;13.336;2022-09-03T07:24:16;101477.78;;;18.76;59.01
16595;BME280;8410;52.532;13.336;2022-09-03T07:26:45;101479.22;;;18.07;59.73
16595;BME280;8410;52.532;13.336;2022-09-03T07:29:14;101492.88;;;18.40;59.48
16595;BME280;8410;52.532;13.336;2022-09-03T07:31:47;101499.41;;;17.53;62.07
16595;BME280;8410;52.532;13.336;2022-09-03T07:34:20;101493.03;;;18.15;60.48
16595;BME280;8410;52.532;13.336;2022-09-03T07:36:52;101490.66;;;17.69;61.77
16595;BME280;8410;52.532;13.336;2022-09-03T07:39:20;101491.28;;;18.20;60.19
16595;BME280;8410;52.532;13.336;2022-09-03T07:41:48;101490.44;;;18.12;60.70
16595;BME280;8410;52.532;13.336;2022-09-03T07:44:17;101494.28;;;18.79;58.58
16595;BME280;8410;52.532;13.336;2022-09-03T07:46:47;101492.09;;;18.27;59.82
16595;BME280;8410;52.532;13.336;2022-09-03T07:49:19;101489.50;;;18.24;60.83
16595;BME280;8410;52.532;13.336;2022-09-03T07:51:48;101499.28;;;17.87;61.42
16595;BME280;8410;52.532;13.336;2022-09-03T07:54:19;101496.78;;;17.62;61.57
16595;BME280;8410;52.532;13.336;2022-09-03T07:56:49;101490.28;;;19.28;58.21
16595;BME280;8410;52.532;13.336;2022-09-03T07:59:17;101487.28;;;19.58;57.16
16595;BME280;8410;52.532;13.336;2022-09-03T08:01:46;101492.06;;;19.24;58.09
16595;BME280;8410;52.532;13.336;2022-09-03T08:04:13;101490.53;;;19.06;57.87
16595;BME280;8410;52.532;13.336;2022-09-03T08:06:43;101502.34;;;18.47;59.13
16595;BME280;8410;52.532;13.336;2022-09-03T08:09:11;101495.19;;;18.72;58.97
16595;BME280;8410;52.532;13.336;2022-09-03T08:11:42;101484.47;;;19.04;58.39
16595;BME280;8410;52.532;13.336;2022-09-03T08:14:12;101489.00;;;18.85;58.39
16595;BME280;8410;52.532;13.336;2022-09-03T08:16:43;101487.78;;;19.18;57.29
16595;BME280;8410;52.532;13.336;2022-09-03T08:19:13;101495.78;;;19.02;57.17
16595;BME280;8410;52.532;13.336;2022-09-03T08:21:43;101496.94;;;18.75;57.94
16595;BME280;8410;52.532;13.336;2022-09-03T08:24:14;101485.13;;;19.22;57.13
16595;BME280;8410;52.532;13.336;2022-09-03T08:26:42;101482.75;;;20.33;55.24
16595;BME280;8410;52.532;13.336;2022-09-03T08:29:17;101483.72;;;19.66;56.09
16595;BME280;8410;52.532;13.336;2022-09-03T08:31:45;101482.72;;;19.79;57.19
16595;BME280;8410;52.532;13.336;2022-09-03T08:34:13;101476.22;;;20.04;56.23
16595;BME280;8410;52.532;13.336;2022-09-03T08:36:45;101485.28;;;19.82;55.42
16595;BME280;8410;52.532;13.336;2022-09-03T08:39:14;101480.34;;;19.56;55.52
16595;BME280;8410;52.532;13.336;2022-09-03T08:42:10;101474.88;;;19.06;56.70
16595;BME280;8410;52.532;13.336;2022-09-03T08:44:46;101481.28;;;18.71;57.67
16595;BME280;8410;52.532;13.336;2022-09-03T08:47:21;101472.81;;;18.46;58.23
16595;BME280;8410;52.532;13.336;2022-09-03T08:49:55;101477.88;;;18.63;58.64
16595;BME280;8410;52.532;13.336;2022-09-03T08:52:31;101476.03;;;18.79;58.36
16595;BME280;8410;52.532;13.336;2022-09-03T08:55:22;101481.53;;;18.41;59.82
16595;BME280;8410;52.532;13.336;2022-09-03T08:58:01;101474.81;;;18.15;59.73
16595;BME280;8410;52.532;13.336;2022-09-03T09:00:50;101460.19;;;18.96;57.92
16595;BME280;8410;52.532;13.336;2022-09-03T09:03:51;101470.78;;;18.82;58.36
16595;BME280;8410;52.532;13.336;2022-09-03T09:06:32;101470.66;;;18.93;58.20
16595;BME280;8410;52.532;13.336;2022-09-03T09:09:14;101458.84;;;19.38;56.23
16595;BME280;8410;52.532;13.336;2022-09-03T09:11:56;101466.84;;;19.25;56.91
16595;BME280;8410;52.532;13.336;2022-09-03T09:14:34;101457.06;;;20.05;55.67
16595;BME280;8410;52.532;13.336;2022-09-03T09:17:24;101458.56;;;19.58;56.05
16595;BME280;8410;52.532;13.336;2022-09-03T09:20:08;101461.22;;;19.54;57.58
16595;BME280;8410;52.532;13.336;2022-09-03T09:22:44;101460.16;;;19.73;55.87
16595;BME280;8410;52.532;13.336;2022-09-03T09:25:19;101454.09;;;19.70;56.25
16595;BME280;8410;52.532;13.336;2022-09-03T09:27:53;101452.38;;;19.66;56.90
16595;BME280;8410;52.532;13.336;2022-09-03T09:30:23;101443.13;;;20.03;55.36
16595;BME280;8410;52.532;13.336;2022-09-03T09:32:51;101442.78;;;19.69;55.14
16595;BME280;8410;52.532;13.336;2022-09-03T09:35:22;101445.34;;;19.74;55.61
16595;BME280;8410;52.532;13.336;2022-09-03T09:37:52;101438.41;;;19.70;55.39
16595;BME280;8410;52.532;13.336;2022-09-03T09:40:30;101428.03;;;20.74;53.67
16595;BME280;8410;52.532;13.336;2022-09-03T09:43:09;101426.22;;;20.77;51.38
16595;BME280;8410;52.532;13.336;2022-09-03T09:45:40;101416.94;;;21.48;50.61
16595;BME280;8410;52.532;13.336;2022-09-03T09:48:17;101421.50;;;20.95;51.36
16595;BME280;8410;52.532;13.336;2022-09-03T09:50:47;101424.59;;;20.70;50.75
16595;BME280;8410;52.532;13.336;2022-09-03T09:53:17;101425.13;;;20.39;51.82
16595;BME280;8410;52.532;13.336;2022-09-03T09:55:51;101421.28;;;20.62;51.15
16595;BME280;8410;52.532;13.336;2022-09-03T09:58:22;101424.13;;;20.95;50.92
16595;BME280;8410;52.532;13.336;2022-09-03T10:01:02;101419.44;;;20.67;50.12
16595;BME280;8410;52.532;13.336;2022-09-03T10:03:48;101430.69;;;20.18;51.52
16595;BME280;8410;52.532;13.336;2022-09-03T10:06:22;101425.44;;;20.21;52.11
16595;BME280;8410;52.532;13.336;2022-09-03T10:09:11;101413.66;;;20.95;50.90
16595;BME280;8410;52.532;13.336;2022-09-03T10:11:45;101404.97;;;20.44;49.34
16595;BME280;8410;52.532;13.336;2022-09-03T10:14:22;101415.44;;;20.44;50.13
16595;BME280;8410;52.532;13.336;2022-09-03T10:16:59;101408.19;;;20.62;50.64
16595;BME280;8410;52.532;13.336;2022-09-03T10:19:42;101403.06;;;21.01;49.22
16595;BME280;8410;52.532;13.336;2022-09-03T10:22:41;101403.09;;;20.99;49.44
16595;BME280;8410;52.532;13.336;2022-09-03T10:25:27;101407.91;;;21.19;46.94
16595;BME280;8410;52.532;13.336;2022-09-03T10:27:59;101406.22;;;21.58;47.25
16595;BME280;8410;52.532;13.336;2022-09-03T10:30:31;101413.38;;;20.63;47.20
16595;BME280;8410;52.532;13.336;2022-09-03T10:33:14;101407.06;;;20.75;47.03
16595;BME280;8410;52.532;13.336;2022-09-03T10:35:51;101405.22;;;20.80;47.32
16595;BME280;8410;52.532;13.336;2022-09-03T10:38:26;101403.41;;;20.84;47.94
16595;BME280;8410;52.532;13.336;2022-09-03T10:41:07;101398.22;;;20.82;45.98
16595;BME280;8410;52.532;13.336;2022-09-03T10:44:08;101399.06;;;21.26;45.81
16595;BME280;8410;52.532;13.336;2022-09-03T10:46:49;101400.97;;;21.18;45.98
16595;BME280;8410;52.532;13.336;2022-09-03T10:49:45;101395.88;;;21.12;45.51
16595;BME280;8410;52.532;13.336;2022-09-03T10:52:26;101391.88;;;20.94;46.00
16595;BME280;8410;52.532;13.336;2022-09-03T10:55:12;101385.34;;;21.15;45.73
16595;BME280;8410;52.532;13.336;2022-09-03T10:57:50;101379.19;;;21.94;45.35
16595;BME280;8410;52.532;13.336;2022-09-03T11:00:21;101389.56;;;21.61;45.45
16595;BME280;8410;52.532;13.336;2022-09-03T11:03:27;101376.44;;;22.00;45.66
16595;BME280;8410;52.532;13.336;2022-09-03T11:06:07;101369.75;;;21.87;45.29
16595;BME280;8410;52.532;13.336;2022-09-03T11:08:43;101380.09;;;21.55;46.53
16595;BME280;8410;52.532;13.336;2022-09-03T11:11:19;101365.47;;;21.84;46.05
16595;BME280;8410;52.532;13.336;2022-09-03T11:13:59;101367.84;;;21.93;45.66
16595;BME280;8410;52.532;13.336;2022-09-03T11:16:37;101365.31;;;21.53;46.14
16595;BME280;8410;52.532;13.336;2022-09-03T11:19:12;101352.28;;;21.86;46.11
16595;BME280;8410;52.532;13.336;2022-09-03T11:21:46;101362.94;;;21.79;46.47
16595;BME280;8410;52.532;13.336;2022-09-03T11:24:23;101347.78;;;22.59;45.78
16595;BME280;8410;52.532;13.336;2022-09-03T11:27:01;101337.22;;;21.94;45.51
16595;BME280;8410;52.532;13.336;2022-09-03T11:29:38;101341.34;;;22.04;45.23
16595;BME280;8410;52.532;13.336;2022-09-03T11:32:17;101344.28;;;22.28;44.32
16595;BME280;8410;52.532;13.336;2022-09-03T11:34:50;101341.81;;;22.21;43.96
16595;BME280;8410;52.532;13.336;2022-09-03T11:37:22;101347.38;;;22.42;44.65
16595;BME280;8410;52.532;13.336;2022-09-03T11:39:58;101344.19;;;21.59;45.18
16595;BME280;8410;52.532;13.336;2022-09-03T11:42:31;101353.28;;;21.82;45.04
16595;BME280;8410;52.532;13.336;2022-09-03T11:45:21;101347.38;;;21.73;45.02
16595;BME280;8410;52.532;13.336;2022-09-03T11:47:51;101339.84;;;21.94;44.56
16595;BME280;8410;52.532;13.336;2022-09-03T11:50:24;101335.59;;;21.90;44.23
16595;BME280;8410;52.532;13.336;2022-09-03T11:53:05;101343.13;;;22.02;44.43
16595;BME280;8410;52.532;13.336;2022-09-03T11:55:51;101328.91;;;22.78;43.83
16595;BME280;8410;52.532;13.336;2022-09-03T11:58:25;101321.13;;;23.04;43.48
16595;BME280;8410;52.532;13.336;2022-09-03T12:00:57;101326.06;;;22.54;44.20
16595;BME280;8410;52.532;13.336;2022-09-03T12:03:43;101340.59;;;21.99;44.71
16595;BME280;8410;52.532;13.336;2022-09-03T12:06:40;101324.78;;;21.68;45.81
16595;BME280;8410;52.532;13.336;2022-09-03T12:09:55;101322.91;;;21.73;46.21
16595;BME280;8410;52.532;13.336;2022-09-03T12:12:47;101315.84;;;21.76;45.66
16595;BME280;8410;52.532;13.336;2022-09-03T12:15:48;101310.66;;;22.08;44.77
16595;BME280;8410;52.532;13.336;2022-09-03T12:18:25;101316.38;;;22.23;44.73
16595;BME280;8410;52.532;13.336;2022-09-03T12:21:04;101323.84;;;21.70;45.11
16595;BME280;8410;52.532;13.336;2022-09-03T12:23:41;101314.06;;;21.78;45.29
16595;BME280;8410;52.532;13.336;2022-09-03T12:26:13;101316.97;;;21.66;44.83
16595;BME280;8410;52.532;13.336;2022-09-03T12:28:44;101298.56;;;22.02;44.45
16595;BME280;8410;52.532;13.336;2022-09-03T12:31:17;101302.91;;;22.37;43.93
16595;BME280;8410;52.532;13.336;2022-09-03T12:33:51;101308.22;;;22.34;43.55
16595;BME280;8410;52.532;13.336;2022-09-03T12:36:22;101305.44;;;22.72;43.54
16595;BME280;8410;52.532;13.336;2022-09-03T12:38:51;101297.47;;;22.75;41.52
16595;BME280;8410;52.532;13.336;2022-09-03T12:41:38;101291.13;;;23.11;41.61
16595;BME280;8410;52.532;13.336;2022-09-03T12:44:14;101288.41;;;23.43;40.43
16595;BME280;8410;52.532;13.336;2022-09-03T12:46:42;101289.63;;;23.04;40.97
16595;BME280;8410;52.532;13.336;2022-09-03T12:49:14;101282.06;;;22.92;41.08
16595;BME280;8410;52.532;13.336;2022-09-03T12:52:04;101281.69;;;22.45;42.08
16595;BME280;8410;52.532;13.336;2022-09-03T12:54:37;101278.09;;;23.08;42.08
16595;BME280;8410;52.532;13.336;2022-09-03T12:57:08;101276.47;;;23.32;41.09
16595;BME280;8410;52.532;13.336;2022-09-03T12:59:37;101275.88;;;23.23;40.95
16595;BME280;8410;52.532;13.336;2022-09-03T13:02:16;101264.50;;;23.24;40.79
16595;BME280;8410;52.532;13.336;2022-09-03T13:04:46;101266.34;;;24.00;39.95
16595;BME280;8410;52.532;13.336;2022-09-03T13:07:24;101274.41;;;22.86;40.71
16595;BME280;8410;52.532;13.336;2022-09-03T13:10:02;101274.00;;;22.39;41.43
16595;BME280;8410;52.532;13.336;2022-09-03T13:12:41;101266.06;;;22.72;41.45
16595;BME280;8410;52.532;13.336;2022-09-03T13:15:17;101260.97;;;22.95;41.53
16595;BME280;8410;52.532;13.336;2022-09-03T13:18:09;101271.63;;;22.61;41.11
16595;BME280;8410;52.532;13.336;2022-09-03T13:21:01;101264.63;;;22.91;41.23
16595;BME280;8410;52.532;13.336;2022-09-03T13:27:03;101254.72;;;23.55;40.63
16595;BME280;8410;52.532;13.336;2022-09-03T13:29:52;101269.53;;;23.30;40.94
16595;BME280;8410;52.532;13.336;2022-09-03T13:32:36;101265.69;;;22.84;41.30
16595;BME280;8410;52.532;13.336;2022-09-03T13:35:12;101259.34;;;23.21;40.90